sensor_id;sensor_type;location;lat;lon;timestamp;temperature;humidity
17845;DHT22;9047;53.486;10.218;2023-01-28T00:01:21;1.70;99.90
17845;DHT22;9047;53.486;10.218;2023-01-28T00:03:49;1.50;99.90
17845;DHT22;9047;53.486;10.218;2023-01-28T00:06:19;1.60;99.90
17845;DHT22;9047;53.486;10.218;2023-01-28T00:08:47;1.60;99.90
17845;DHT22;9047;53.486;10.218;2023-01-28T00:11:14;1.60;99.90
17845;DHT22;9047;53.486;10.218;2023-01-28T00:13:50;1.60;99.90
17845;DHT22;9047;53.486;10.218;2023-01-28T00:16:19;1.60;99.90
17845;DHT22;9047;53.486;10.218;2023-01-28T00:18:51;1.60;99.90
17845;DHT22;9047;53.486;10.218;2023-01-28T00:21:20;1.60;99.90
17845;DHT22;9047;53.486;10.218;2023-01-28T00:23:50;1.70;99.90
17845;DHT22;9047;53.486;10.218;2023-01-28T00:26:18;1.70;99.90
17845;DHT22;9047;53.486;10.218;2023-01-28T00:28:46;1.70;99.90
17845;DHT22;9047;53.486;10.218;2023-01-28T00:31:15;1.70;99.90
17845;DHT22;9047;53.486;10.218;2023-01-28T00:33:42;1.70;99.90
17845;DHT22;9047;53.486;10.218;2023-01-28T00:36:11;1.80;99.90
17845;DHT22;9047;53.486;10.218;2023-01-28T00:38:40;1.80;99.90
17845;DHT22;9047;53.486;10.218;2023-01-28T00:41:09;1.80;99.90
17845;DHT22;9047;53.486;10.218;2023-01-28T00:43:37;1.80;99.90
17845;DHT22;9047;53.486;10.218;2023-01-28T00:46:05;1.80;99.90
17845;DHT22;9047;53.486;10.218;2023-01-28T00:48:32;1.80;99.90
17845;DHT22;9047;53.486;10.218;2023-01-28T00:51:01;1.80;99.90
17845;DHT22;9047;53.486;10.218;2023-01-28T00:53:29;1.80;99.90
17845;DHT22;9047;53.486;10.218;2023-01-28T00:55:58;1.80;99.90
17845;DHT22;9047;53.486;10.218;2023-01-28T00:58:25;1.80;99.90
17845;DHT22;9047;53.486;10.218;2023-01-28T01:00:53;1.80;99.90
17845;DHT22;9047;53.486;10.218;2023-01-28T01:03:20;1.80;99.90
17845;DHT22;9047;53.486;10.218;2023-01-28T01:05:47;1.80;99.90
17845;DHT22;9047;53.486;10.218;2023-01-28T01:08:15;1.80;99.90
17845;DHT22;9047;53.486;10.218;2023-01-28T01:10:42;1.80;99.90
17845;DHT22;9047;53.486;10.218;2023-01-28T01:13:10;1.80;99.90
17845;DHT22;9047;53.486;10.218;2023-01-28T01:15:44;1.80;99.90
17845;DHT22;9047;53.486;10.218;2023-01-28T01:18:12;1.80;99.90
17845;DHT22;9047;53.486;10.218;2023-01-28T01:20:40;1.80;99.90
17845;DHT22;9047;53.486;10.218;2023-01-28T01:23:10;1.80;99.90
17845;DHT22;9047;53.486;10.218;2023-01-28T01:25:39;1.80;99.90
17845;DHT22;9047;53.486;10.218;2023-01-28T01:28:06;1.80;99.90
17845;DHT22;9047;53.486;10.218;2023-01-28T01:30:34;1.80;99.90
17845;DHT22;9047;53.486;10.218;2023-01-28T01:33:01;1.80;99.90
17845;DHT22;9047;53.486;10.218;2023-01-28T01:35:29;1.90;99.90
17845;DHT22;9047;53.486;10.218;2023-01-28T01:37:56;1.80;99.90
17845;DHT22;9047;53.486;10.218;2023-01-28T01:40:23;1.80;99.90
17845;DHT22;9047;53.486;10.218;2023-01-28T01:42:50;1.70;99.90
17845;DHT22;9047;53.486;10.218;2023-01-28T01:45:18;1.80;99.90
17845;DHT22;9047;53.486;10.218;2023-01-28T01:47:49;1.80;99.90
17845;DHT22;9047;53.486;10.218;2023-01-28T01:50:38;1.80;99.90
17845;DHT22;9047;53.486;10.218;2023-01-28T01:53:12;1.80;99.90
17845;DHT22;9047;53.486;10.218;2023-01-28T01:55:41;1.80;99.90
17845;DHT22;9047;53.486;10.218;2023-01-28T01:58:12;1.80;99.90
17845;DHT22;9047;53.486;10.218;2023-01-28T02:00:41;1.80;99.90
17845;DHT22;9047;53.486;10.218;2023-01-28T02:03:10;1.80;99.90
17845;DHT22;9047;53.486;10.218;2023-01-28T02:05:38;1.80;99.90
17845;DHT22;9047;53.486;10.218;2023-01-28T02:08:05;1.80;99.90
17845;DHT22;9047;53.486;10.218;2023-01-28T02:10:51;1.80;99.90
17845;DHT22;9047;53.486;10.218;2023-01-28T02:13:20;1.80;99.90
17845;DHT22;9047;53.486;10.218;2023-01-28T02:15:48;1.80;99.90
17845;DHT22;9047;53.486;10.218;2023-01-28T02:18:18;1.80;99.90
17845;DHT22;9047;53.486;10.218;2023-01-28T02:21:03;1.80;99.90
17845;DHT22;9047;53.486;10.218;2023-01-28T02:23:47;1.70;99.90
17845;DHT22;9047;53.486;10.218;2023-01-28T02:26:28;1.70;99.90
17845;DHT22;9047;53.486;10.218;2023-01-28T02:29:04;1.70;99.90
17845;DHT22;9047;53.486;10.218;2023-01-28T02:31:41;1.60;99.90
17845;DHT22;9047;53.486;10.218;2023-01-28T02:34:13;1.60;99.90
17845;DHT22;9047;53.486;10.218;2023-01-28T02:36:44;1.60;99.90
17845;DHT22;9047;53.486;10.218;2023-01-28T02:39:17;1.60;99.90
17845;DHT22;9047;53.486;10.218;2023-01-28T02:41:49;1.60;99.90
17845;DHT22;9047;53.486;10.218;2023-01-28T02:44:19;1.60;99.90
17845;DHT22;9047;53.486;10.218;2023-01-28T02:46:45;1.60;99.90
17845;DHT22;9047;53.486;10.218;2023-01-28T02:49:35;1.60;99.90
17845;DHT22;9047;53.486;10.218;2023-01-28T02:52:29;1.70;99.90
17845;DHT22;9047;53.486;10.218;2023-01-28T02:55:28;1.60;99.90
17845;DHT22;9047;53.486;10.218;2023-01-28T02:58:02;1.50;99.90
17845;DHT22;9047;53.486;10.218;2023-01-28T03:00:39;1.50;99.90
17845;DHT22;9047;53.486;10.218;2023-01-28T03:03:14;1.50;99.90
17845;DHT22;9047;53.486;10.218;2023-01-28T03:05:46;1.50;99.90
17845;DHT22;9047;53.486;10.218;2023-01-28T03:08:31;1.50;99.90
17845;DHT22;9047;53.486;10.218;2023-01-28T03:11:17;1.50;99.90
17845;DHT22;9047;53.486;10.218;2023-01-28T03:14:01;1.40;99.90
17845;DHT22;9047;53.486;10.218;2023-01-28T03:16:48;1.50;99.90
17845;DHT22;9047;53.486;10.218;2023-01-28T03:19:34;1.50;99.90
17845;DHT22;9047;53.486;10.218;2023-01-28T03:22:19;1.50;99.90
17845;DHT22;9047;53.486;10.218;2023-01-28T03:25:04;1.40;99.90
17845;DHT22;9047;53.486;10.218;2023-01-28T03:27:53;1.50;99.90
17845;DHT22;9047;53.486;10.218;2023-01-28T03:30:43;1.40;99.90
17845;DHT22;9047;53.486;10.218;2023-01-28T03:33:31;1.50;99.90
17845;DHT22;9047;53.486;10.218;2023-01-28T03:36:16;1.40;99.90
17845;DHT22;9047;53.486;10.218;2023-01-28T03:39:01;1.40;99.90
17845;DHT22;9047;53.486;10.218;2023-01-28T03:41:28;1.40;99.90
17845;DHT22;9047;53.486;10.218;2023-01-28T03:43:55;1.40;99.90
17845;DHT22;9047;53.486;10.218;2023-01-28T03:46:22;1.30;99.90
17845;DHT22;9047;53.486;10.218;2023-01-28T03:48:54;1.30;99.90
17845;DHT22;9047;53.486;10.218;2023-01-28T03:51:20;1.20;99.90
17845;DHT22;9047;53.486;10.218;2023-01-28T03:53:47;1.20;99.90
17845;DHT22;9047;53.486;10.218;2023-01-28T03:56:16;1.20;99.90
17845;DHT22;9047;53.486;10.218;2023-01-28T03:58:44;1.20;99.90
17845;DHT22;9047;53.486;10.218;2023-01-28T04:01:20;1.20;99.90
17845;DHT22;9047;53.486;10.218;2023-01-28T04:03:47;1.20;99.90
17845;DHT22;9047;53.486;10.218;2023-01-28T04:06:17;1.20;99.90
17845;DHT22;9047;53.486;10.218;2023-01-28T04:08:44;1.20;99.90
17845;DHT22;9047;53.486;10.218;2023-01-28T04:11:17;1.20;99.90
17845;DHT22;9047;53.486;10.218;2023-01-28T04:13:46;1.20;99.90
17845;DHT22;9047;53.486;10.218;2023-01-28T04:16:15;1.30;99.90
17845;DHT22;9047;53.486;10.218;2023-01-28T04:18:42;1.30;99.90
17845;DHT22;9047;53.486;10.218;2023-01-28T04:21:10;1.30;99.90
17845;DHT22;9047;53.486;10.218;2023-01-28T04:23:38;1.20;99.90
17845;DHT22;9047;53.486;10.218;2023-01-28T04:26:05;1.20;99.90
17845;DHT22;9047;53.486;10.218;2023-01-28T04:28:33;1.20;99.90
17845;DHT22;9047;53.486;10.218;2023-01-28T04:31:00;1.20;99.90
17845;DHT22;9047;53.486;10.218;2023-01-28T04:33:26;1.10;99.90
17845;DHT22;9047;53.486;10.218;2023-01-28T04:35:53;1.10;99.90
17845;DHT22;9047;53.486;10.218;2023-01-28T04:38:20;1.10;99.90
17845;DHT22;9047;53.486;10.218;2023-01-28T04:40:52;1.00;99.90
17845;DHT22;9047;53.486;10.218;2023-01-28T04:43:19;1.00;99.90
17845;DHT22;9047;53.486;10.218;2023-01-28T04:45:47;0.90;99.90
17845;DHT22;9047;53.486;10.218;2023-01-28T04:48:14;0.80;99.90
17845;DHT22;9047;53.486;10.218;2023-01-28T04:50:42;0.80;99.90
17845;DHT22;9047;53.486;10.218;2023-01-28T04:53:09;0.70;99.90
17845;DHT22;9047;53.486;10.218;2023-01-28T04:55:36;0.70;99.90
17845;DHT22;9047;53.486;10.218;2023-01-28T04:58:05;0.70;99.90
17845;DHT22;9047;53.486;10.218;2023-01-28T05:00:32;0.60;99.90
17845;DHT22;9047;53.486;10.218;2023-01-28T05:02:59;0.50;99.90
17845;DHT22;9047;53.486;10.218;2023-01-28T05:05:26;0.60;99.90
17845;DHT22;9047;53.486;10.218;2023-01-28T05:07:57;0.50;99.90
17845;DHT22;9047;53.486;10.218;2023-01-28T05:10:34;0.60;99.90
17845;DHT22;9047;53.486;10.218;2023-01-28T05:13:05;0.60;99.90
17845;DHT22;9047;53.486;10.218;2023-01-28T05:15:34;0.60;99.90
17845;DHT22;9047;53.486;10.218;2023-01-28T05:18:03;0.60;99.90
17845;DHT22;9047;53.486;10.218;2023-01-28T05:20:31;0.60;99.90
17845;DHT22;9047;53.486;10.218;2023-01-28T05:22:58;0.60;99.90
17845;DHT22;9047;53.486;10.218;2023-01-28T05:25:38;0.60;99.90
17845;DHT22;9047;53.486;10.218;2023-01-28T05:28:08;0.50;99.90
17845;DHT22;9047;53.486;10.218;2023-01-28T05:30:37;0.50;99.90
17845;DHT22;9047;53.486;10.218;2023-01-28T05:33:05;0.50;99.90
17845;DHT22;9047;53.486;10.218;2023-01-28T05:35:32;0.40;99.90
17845;DHT22;9047;53.486;10.218;2023-01-28T05:38:01;0.40;99.90
17845;DHT22;9047;53.486;10.218;2023-01-28T05:40:38;0.30;99.90
17845;DHT22;9047;53.486;10.218;2023-01-28T05:43:11;0.30;99.90
17845;DHT22;9047;53.486;10.218;2023-01-28T05:45:41;0.20;99.90
17845;DHT22;9047;53.486;10.218;2023-01-28T05:48:10;0.10;99.90
17845;DHT22;9047;53.486;10.218;2023-01-28T05:50:37;-0.10;99.90
17845;DHT22;9047;53.486;10.218;2023-01-28T05:53:08;-0.20;99.90
17845;DHT22;9047;53.486;10.218;2023-01-28T05:55:36;-0.30;99.90
17845;DHT22;9047;53.486;10.218;2023-01-28T05:58:04;-0.40;99.90
17845;DHT22;9047;53.486;10.218;2023-01-28T06:00:32;-0.50;99.90
17845;DHT22;9047;53.486;10.218;2023-01-28T06:03:01;-0.60;99.90
17845;DHT22;9047;53.486;10.218;2023-01-28T06:05:30;-0.60;99.90
17845;DHT22;9047;53.486;10.218;2023-01-28T06:07:57;-0.70;99.90
17845;DHT22;9047;53.486;10.218;2023-01-28T06:10:29;-0.60;99.90
17845;DHT22;9047;53.486;10.218;2023-01-28T06:13:01;-0.60;99.90
17845;DHT22;9047;53.486;10.218;2023-01-28T06:15:28;-0.60;99.90
17845;DHT22;9047;53.486;10.218;2023-01-28T06:17:58;-0.70;99.90
17845;DHT22;9047;53.486;10.218;2023-01-28T06:20:25;-0.60;99.90
17845;DHT22;9047;53.486;10.218;2023-01-28T06:22:52;-0.60;99.90
17845;DHT22;9047;53.486;10.218;2023-01-28T06:25:21;-0.70;99.90
17845;DHT22;9047;53.486;10.218;2023-01-28T06:27:51;-0.80;99.90
17845;DHT22;9047;53.486;10.218;2023-01-28T06:30:20;-0.80;99.90
17845;DHT22;9047;53.486;10.218;2023-01-28T06:32:53;-0.80;99.90
17845;DHT22;9047;53.486;10.218;2023-01-28T06:35:23;-0.70;99.90
17845;DHT22;9047;53.486;10.218;2023-01-28T06:37:50;-0.70;99.90
17845;DHT22;9047;53.486;10.218;2023-01-28T06:40:23;-0.70;99.90
17845;DHT22;9047;53.486;10.218;2023-01-28T06:42:52;-0.70;99.90
17845;DHT22;9047;53.486;10.218;2023-01-28T06:45:20;-0.70;99.90
17845;DHT22;9047;53.486;10.218;2023-01-28T06:47:49;-0.80;99.90
17845;DHT22;9047;53.486;10.218;2023-01-28T06:50:23;-0.80;99.90
17845;DHT22;9047;53.486;10.218;2023-01-28T06:52:52;-0.90;99.90
17845;DHT22;9047;53.486;10.218;2023-01-28T06:55:20;-1.00;99.90
17845;DHT22;9047;53.486;10.218;2023-01-28T06:57:48;-1.00;99.90
17845;DHT22;9047;53.486;10.218;2023-01-28T07:00:16;-1.00;99.90
17845;DHT22;9047;53.486;10.218;2023-01-28T07:02:57;-1.00;99.90
17845;DHT22;9047;53.486;10.218;2023-01-28T07:05:26;-1.10;99.90
17845;DHT22;9047;53.486;10.218;2023-01-28T07:07:57;-1.20;99.90
17845;DHT22;9047;53.486;10.218;2023-01-28T07:10:24;-1.20;99.90
17845;DHT22;9047;53.486;10.218;2023-01-28T07:12:52;-1.20;99.90
17845;DHT22;9047;53.486;10.218;2023-01-28T07:15:33;-1.30;99.90
17845;DHT22;9047;53.486;10.218;2023-01-28T07:18:01;-1.30;99.90
17845;DHT22;9047;53.486;10.218;2023-01-28T07:20:35;-1.30;99.90
17845;DHT22;9047;53.486;10.218;2023-01-28T07:23:03;-1.20;99.90
17845;DHT22;9047;53.486;10.218;2023-01-28T07:25:34;-1.20;99.90
17845;DHT22;9047;53.486;10.218;2023-01-28T07:28:02;-1.20;99.90
17845;DHT22;9047;53.486;10.218;2023-01-28T07:30:31;-1.20;99.90
17845;DHT22;9047;53.486;10.218;2023-01-28T07:32:59;-1.20;99.90
17845;DHT22;9047;53.486;10.218;2023-01-28T07:35:30;-1.20;99.90
17845;DHT22;9047;53.486;10.218;2023-01-28T07:38:03;-1.10;99.90
17845;DHT22;9047;53.486;10.218;2023-01-28T07:40:31;-1.00;99.90
17845;DHT22;9047;53.486;10.218;2023-01-28T07:43:00;-0.80;99.90
17845;DHT22;9047;53.486;10.218;2023-01-28T07:45:36;-0.70;99.90
17845;DHT22;9047;53.486;10.218;2023-01-28T07:48:05;-0.50;99.90
17845;DHT22;9047;53.486;10.218;2023-01-28T07:50:35;-0.50;99.90
17845;DHT22;9047;53.486;10.218;2023-01-28T07:53:06;-0.40;99.90
17845;DHT22;9047;53.486;10.218;2023-01-28T07:55:34;-0.40;99.90
17845;DHT22;9047;53.486;10.218;2023-01-28T07:58:02;-0.30;99.90
17845;DHT22;9047;53.486;10.218;2023-01-28T08:00:33;-0.30;99.90
17845;DHT22;9047;53.486;10.218;2023-01-28T08:03:03;-0.30;99.90
17845;DHT22;9047;53.486;10.218;2023-01-28T08:05:37;-0.20;99.90
17845;DHT22;9047;53.486;10.218;2023-01-28T08:08:08;-0.20;99.90
17845;DHT22;9047;53.486;10.218;2023-01-28T08:10:36;-0.20;99.90
17845;DHT22;9047;53.486;10.218;2023-01-28T08:13:03;-0.20;99.90
17845;DHT22;9047;53.486;10.218;2023-01-28T08:15:32;-0.10;99.90
17845;DHT22;9047;53.486;10.218;2023-01-28T08:18:04;0.00;99.90
17845;DHT22;9047;53.486;10.218;2023-01-28T08:20:32;0.10;99.90
17845;DHT22;9047;53.486;10.218;2023-01-28T08:23:09;0.10;99.90
17845;DHT22;9047;53.486;10.218;2023-01-28T08:25:37;0.10;99.90
17845;DHT22;9047;53.486;10.218;2023-01-28T08:28:05;0.10;99.90
17845;DHT22;9047;53.486;10.218;2023-01-28T08:30:33;0.10;99.90
17845;DHT22;9047;53.486;10.218;2023-01-28T08:33:00;0.00;99.90
17845;DHT22;9047;53.486;10.218;2023-01-28T08:35:28;0.00;99.90
17845;DHT22;9047;53.486;10.218;2023-01-28T08:37:58;0.10;99.90
17845;DHT22;9047;53.486;10.218;2023-01-28T08:40:27;0.20;99.90
17845;DHT22;9047;53.486;10.218;2023-01-28T08:42:54;0.30;99.90
17845;DHT22;9047;53.486;10.218;2023-01-28T08:45:22;0.40;99.90
17845;DHT22;9047;53.486;10.218;2023-01-28T08:47:52;0.50;99.90
17845;DHT22;9047;53.486;10.218;2023-01-28T08:50:23;0.50;99.90
17845;DHT22;9047;53.486;10.218;2023-01-28T08:52:54;0.60;99.90
17845;DHT22;9047;53.486;10.218;2023-01-28T08:55:21;0.60;99.90
17845;DHT22;9047;53.486;10.218;2023-01-28T08:57:50;0.80;99.90
17845;DHT22;9047;53.486;10.218;2023-01-28T09:00:17;0.80;99.90
17845;DHT22;9047;53.486;10.218;2023-01-28T09:02:45;0.90;99.90
17845;DHT22;9047;53.486;10.218;2023-01-28T09:05:14;0.90;99.90
17845;DHT22;9047;53.486;10.218;2023-01-28T09:07:42;1.00;99.90
17845;DHT22;9047;53.486;10.218;2023-01-28T09:10:10;1.10;99.90
17845;DHT22;9047;53.486;10.218;2023-01-28T09:12:39;1.20;99.90
17845;DHT22;9047;53.486;10.218;2023-01-28T09:15:09;1.40;99.90
17845;DHT22;9047;53.486;10.218;2023-01-28T09:17:36;1.50;99.90
17845;DHT22;9047;53.486;10.218;2023-01-28T09:20:05;1.70;99.90
17845;DHT22;9047;53.486;10.218;2023-01-28T09:22:32;1.70;99.90
17845;DHT22;9047;53.486;10.218;2023-01-28T09:25:00;1.70;99.90
17845;DHT22;9047;53.486;10.218;2023-01-28T09:27:29;1.70;99.90
17845;DHT22;9047;53.486;10.218;2023-01-28T09:29:57;1.70;99.90
17845;DHT22;9047;53.486;10.218;2023-01-28T09:32:30;1.70;99.90
17845;DHT22;9047;53.486;10.218;2023-01-28T09:34:57;1.80;99.90
17845;DHT22;9047;53.486;10.218;2023-01-28T09:37:24;1.80;99.90
17845;DHT22;9047;53.486;10.218;2023-01-28T09:39:51;1.80;99.90
17845;DHT22;9047;53.486;10.218;2023-01-28T09:42:30;1.80;99.90
17845;DHT22;9047;53.486;10.218;2023-01-28T09:45:05;1.70;99.90
17845;DHT22;9047;53.486;10.218;2023-01-28T09:47:39;1.70;99.90
17845;DHT22;9047;53.486;10.218;2023-01-28T09:50:11;1.60;99.90
17845;DHT22;9047;53.486;10.218;2023-01-28T09:52:40;1.60;99.90
17845;DHT22;9047;53.486;10.218;2023-01-28T09:55:14;1.60;99.90
17845;DHT22;9047;53.486;10.218;2023-01-28T09:57:46;1.70;99.90
17845;DHT22;9047;53.486;10.218;2023-01-28T10:00:17;1.80;99.90
17845;DHT22;9047;53.486;10.218;2023-01-28T10:02:57;1.90;99.90
17845;DHT22;9047;53.486;10.218;2023-01-28T10:05:32;2.10;99.90
17845;DHT22;9047;53.486;10.218;2023-01-28T10:08:13;2.20;99.90
17845;DHT22;9047;53.486;10.218;2023-01-28T10:10:48;2.20;99.90
17845;DHT22;9047;53.486;10.218;2023-01-28T10:13:26;2.30;99.90
17845;DHT22;9047;53.486;10.218;2023-01-28T10:16:04;2.30;99.90
17845;DHT22;9047;53.486;10.218;2023-01-28T10:18:36;2.40;99.90
17845;DHT22;9047;53.486;10.218;2023-01-28T10:21:10;2.50;99.90
17845;DHT22;9047;53.486;10.218;2023-01-28T10:23:45;2.60;99.90
17845;DHT22;9047;53.486;10.218;2023-01-28T10:26:21;2.60;99.90
17845;DHT22;9047;53.486;10.218;2023-01-28T10:28:53;2.70;99.90
17845;DHT22;9047;53.486;10.218;2023-01-28T10:31:22;2.80;99.90
17845;DHT22;9047;53.486;10.218;2023-01-28T10:33:50;2.90;99.90
17845;DHT22;9047;53.486;10.218;2023-01-28T10:36:17;2.90;99.90
17845;DHT22;9047;53.486;10.218;2023-01-28T10:38:44;3.00;99.90
17845;DHT22;9047;53.486;10.218;2023-01-28T10:41:16;3.10;99.90
17845;DHT22;9047;53.486;10.218;2023-01-28T10:43:47;3.20;99.90
17845;DHT22;9047;53.486;10.218;2023-01-28T10:46:18;3.40;99.90
17845;DHT22;9047;53.486;10.218;2023-01-28T10:48:47;3.50;99.90
17845;DHT22;9047;53.486;10.218;2023-01-28T10:51:15;3.60;99.90
17845;DHT22;9047;53.486;10.218;2023-01-28T10:53:45;3.60;99.90
17845;DHT22;9047;53.486;10.218;2023-01-28T10:56:14;3.50;99.90
17845;DHT22;9047;53.486;10.218;2023-01-28T10:58:55;3.50;99.90
17845;DHT22;9047;53.486;10.218;2023-01-28T11:01:36;3.50;99.90
17845;DHT22;9047;53.486;10.218;2023-01-28T11:04:04;3.50;99.90
17845;DHT22;9047;53.486;10.218;2023-01-28T11:06:33;3.50;99.90
17845;DHT22;9047;53.486;10.218;2023-01-28T11:09:00;3.40;99.90
17845;DHT22;9047;53.486;10.218;2023-01-28T11:11:27;3.40;99.90
17845;DHT22;9047;53.486;10.218;2023-01-28T11:13:54;3.40;99.90
17845;DHT22;9047;53.486;10.218;2023-01-28T11:16:23;3.50;99.90
17845;DHT22;9047;53.486;10.218;2023-01-28T11:18:52;3.60;99.90
17845;DHT22;9047;53.486;10.218;2023-01-28T11:21:21;3.70;99.90
17845;DHT22;9047;53.486;10.218;2023-01-28T11:23:53;3.70;99.90
17845;DHT22;9047;53.486;10.218;2023-01-28T11:26:24;3.70;99.90
17845;DHT22;9047;53.486;10.218;2023-01-28T11:28:54;3.90;99.90
17845;DHT22;9047;53.486;10.218;2023-01-28T11:31:22;3.90;99.90
17845;DHT22;9047;53.486;10.218;2023-01-28T11:33:52;3.90;99.90
17845;DHT22;9047;53.486;10.218;2023-01-28T11:36:23;4.00;99.90
17845;DHT22;9047;53.486;10.218;2023-01-28T11:38:53;4.10;99.90
17845;DHT22;9047;53.486;10.218;2023-01-28T11:41:25;4.20;99.90
17845;DHT22;9047;53.486;10.218;2023-01-28T11:43:53;4.30;99.90
17845;DHT22;9047;53.486;10.218;2023-01-28T11:46:38;4.40;99.90
17845;DHT22;9047;53.486;10.218;2023-01-28T11:49:11;4.60;99.90
17845;DHT22;9047;53.486;10.218;2023-01-28T11:51:49;4.60;99.90
17845;DHT22;9047;53.486;10.218;2023-01-28T11:54:32;4.70;99.90
17845;DHT22;9047;53.486;10.218;2023-01-28T11:57:22;4.70;99.90
17845;DHT22;9047;53.486;10.218;2023-01-28T12:00:26;4.80;99.90
17845;DHT22;9047;53.486;10.218;2023-01-28T12:03:22;4.80;99.90
17845;DHT22;9047;53.486;10.218;2023-01-28T12:06:25;4.90;99.90
17845;DHT22;9047;53.486;10.218;2023-01-28T12:09:03;4.90;99.90
17845;DHT22;9047;53.486;10.218;2023-01-28T12:11:42;5.00;99.90
17845;DHT22;9047;53.486;10.218;2023-01-28T12:14:34;5.00;99.90
17845;DHT22;9047;53.486;10.218;2023-01-28T12:17:16;5.00;99.90
17845;DHT22;9047;53.486;10.218;2023-01-28T12:19:59;5.10;99.90
17845;DHT22;9047;53.486;10.218;2023-01-28T12:22:55;5.10;99.90
17845;DHT22;9047;53.486;10.218;2023-01-28T12:25:38;5.10;99.90
17845;DHT22;9047;53.486;10.218;2023-01-28T12:28:23;5.00;99.90
17845;DHT22;9047;53.486;10.218;2023-01-28T12:31:09;4.70;99.90
17845;DHT22;9047;53.486;10.218;2023-01-28T12:33:53;4.50;99.90
17845;DHT22;9047;53.486;10.218;2023-01-28T12:36:36;4.50;99.90
17845;DHT22;9047;53.486;10.218;2023-01-28T12:39:17;4.40;99.90
17845;DHT22;9047;53.486;10.218;2023-01-28T12:41:48;4.50;99.90
17845;DHT22;9047;53.486;10.218;2023-01-28T12:44:24;4.60;99.90
17845;DHT22;9047;53.486;10.218;2023-01-28T12:46:54;4.60;99.90
17845;DHT22;9047;53.486;10.218;2023-01-28T12:49:28;4.70;99.90
17845;DHT22;9047;53.486;10.218;2023-01-28T12:52:02;4.70;99.90
17845;DHT22;9047;53.486;10.218;2023-01-28T12:54:40;4.80;99.90
17845;DHT22;9047;53.486;10.218;2023-01-28T12:57:25;4.90;99.90
17845;DHT22;9047;53.486;10.218;2023-01-28T13:00:05;5.10;99.90
17845;DHT22;9047;53.486;10.218;2023-01-28T13:02:37;5.30;99.90
17845;DHT22;9047;53.486;10.218;2023-01-28T13:05:08;5.40;99.90
17845;DHT22;9047;53.486;10.218;2023-01-28T13:07:40;5.60;99.90
17845;DHT22;9047;53.486;10.218;2023-01-28T13:10:15;5.70;99.90
17845;DHT22;9047;53.486;10.218;2023-01-28T13:12:45;5.80;99.90
17845;DHT22;9047;53.486;10.218;2023-01-28T13:15:19;6.10;99.90
17845;DHT22;9047;53.486;10.218;2023-01-28T13:24:04;6.10;99.90
17845;DHT22;9047;53.486;10.218;2023-01-28T13:26:41;6.10;99.90
17845;DHT22;9047;53.486;10.218;2023-01-28T13:29:27;6.20;99.90
17845;DHT22;9047;53.486;10.218;2023-01-28T13:31:57;6.20;99.90
17845;DHT22;9047;53.486;10.218;2023-01-28T13:34:28;6.20;99.90
17845;DHT22;9047;53.486;10.218;2023-01-28T13:37:01;6.20;99.90
17845;DHT22;9047;53.486;10.218;2023-01-28T13:39:30;6.00;99.90
17845;DHT22;9047;53.486;10.218;2023-01-28T13:42:19;5.90;99.90
17845;DHT22;9047;53.486;10.218;2023-01-28T13:44:47;5.70;99.90
17845;DHT22;9047;53.486;10.218;2023-01-28T13:47:22;5.60;99.90
17845;DHT22;9047;53.486;10.218;2023-01-28T13:49:54;5.40;99.90
17845;DHT22;9047;53.486;10.218;2023-01-28T13:52:26;5.30;99.90
17845;DHT22;9047;53.486;10.218;2023-01-28T13:54:59;5.20;99.90
17845;DHT22;9047;53.486;10.218;2023-01-28T14:00:37;5.00;99.90
17845;DHT22;9047;53.486;10.218;2023-01-28T14:06:22;4.90;99.90
17845;DHT22;9047;53.486;10.218;2023-01-28T14:09:07;4.90;99.90
17845;DHT22;9047;53.486;10.218;2023-01-28T14:12:08;4.80;99.90
17845;DHT22;9047;53.486;10.218;2023-01-28T14:15:06;4.80;99.90
17845;DHT22;9047;53.486;10.218;2023-01-28T14:17:41;4.80;99.90
17845;DHT22;9047;53.486;10.218;2023-01-28T14:20:15;4.80;99.90
17845;DHT22;9047;53.486;10.218;2023-01-28T14:22:44;4.90;99.90
17845;DHT22;9047;53.486;10.218;2023-01-28T14:25:14;5.00;99.90
17845;DHT22;9047;53.486;10.218;2023-01-28T14:27:44;5.00;99.90
17845;DHT22;9047;53.486;10.218;2023-01-28T14:30:18;4.90;99.90
17845;DHT22;9047;53.486;10.218;2023-01-28T14:32:52;4.90;99.90
17845;DHT22;9047;53.486;10.218;2023-01-28T14:35:27;4.80;99.90
17845;DHT22;9047;53.486;10.218;2023-01-28T14:37:57;4.70;99.90
17845;DHT22;9047;53.486;10.218;2023-01-28T14:40:27;4.70;99.90
17845;DHT22;9047;53.486;10.218;2023-01-28T14:42:55;4.60;99.90
17845;DHT22;9047;53.486;10.218;2023-01-28T14:45:34;4.50;99.90
17845;DHT22;9047;53.486;10.218;2023-01-28T14:48:22;4.50;99.90
17845;DHT22;9047;53.486;10.218;2023-01-28T14:51:07;4.40;99.90
17845;DHT22;9047;53.486;10.218;2023-01-28T14:54:01;4.30;99.90
17845;DHT22;9047;53.486;10.218;2023-01-28T14:56:39;4.30;99.90
17845;DHT22;9047;53.486;10.218;2023-01-28T14:59:16;4.20;99.90
17845;DHT22;9047;53.486;10.218;2023-01-28T15:01:45;4.20;99.90
17845;DHT22;9047;53.486;10.218;2023-01-28T15:04:23;4.10;99.90
17845;DHT22;9047;53.486;10.218;2023-01-28T15:06:51;4.00;99.90
17845;DHT22;9047;53.486;10.218;2023-01-28T15:09:22;4.00;99.90
17845;DHT22;9047;53.486;10.218;2023-01-28T15:11:56;4.10;99.90
17845;DHT22;9047;53.486;10.218;2023-01-28T15:14:26;4.10;99.90
17845;DHT22;9047;53.486;10.218;2023-01-28T15:16:55;4.10;99.90
17845;DHT22;9047;53.486;10.218;2023-01-28T15:19:26;4.10;99.90
17845;DHT22;9047;53.486;10.218;2023-01-28T15:21:56;4.10;99.90
17845;DHT22;9047;53.486;10.218;2023-01-28T15:24:28;4.00;99.90
17845;DHT22;9047;53.486;10.218;2023-01-28T15:26:57;4.00;99.90
17845;DHT22;9047;53.486;10.218;2023-01-28T15:29:29;4.00;99.90
17845;DHT22;9047;53.486;10.218;2023-01-28T15:32:00;3.90;99.90
17845;DHT22;9047;53.486;10.218;2023-01-28T15:34:29;4.00;99.90
17845;DHT22;9047;53.486;10.218;2023-01-28T15:36:58;3.90;99.90
17845;DHT22;9047;53.486;10.218;2023-01-28T15:39:29;3.80;99.90
17845;DHT22;9047;53.486;10.218;2023-01-28T15:42:02;3.80;99.90
17845;DHT22;9047;53.486;10.218;2023-01-28T15:44:37;3.80;99.90
17845;DHT22;9047;53.486;10.218;2023-01-28T15:47:14;3.70;99.90
17845;DHT22;9047;53.486;10.218;2023-01-28T15:49:45;3.70;99.90
17845;DHT22;9047;53.486;10.218;2023-01-28T15:52:16;3.60;99.90
17845;DHT22;9047;53.486;10.218;2023-01-28T15:54:50;3.60;99.90
17845;DHT22;9047;53.486;10.218;2023-01-28T15:57:26;3.60;99.90
17845;DHT22;9047;53.486;10.218;2023-01-28T16:00:10;3.50;99.90
17845;DHT22;9047;53.486;10.218;2023-01-28T16:02:43;3.50;99.90
17845;DHT22;9047;53.486;10.218;2023-01-28T16:05:25;3.40;99.90
17845;DHT22;9047;53.486;10.218;2023-01-28T16:08:07;3.30;99.90
17845;DHT22;9047;53.486;10.218;2023-01-28T16:10:51;3.30;99.90
17845;DHT22;9047;53.486;10.218;2023-01-28T16:13:20;3.20;99.90
17845;DHT22;9047;53.486;10.218;2023-01-28T16:15:51;3.10;99.90
17845;DHT22;9047;53.486;10.218;2023-01-28T16:18:39;3.00;99.90
17845;DHT22;9047;53.486;10.218;2023-01-28T16:21:12;2.90;99.90
17845;DHT22;9047;53.486;10.218;2023-01-28T16:23:57;2.80;99.90
17845;DHT22;9047;53.486;10.218;2023-01-28T16:26:27;2.80;99.90
17845;DHT22;9047;53.486;10.218;2023-01-28T16:28:54;2.80;99.90
17845;DHT22;9047;53.486;10.218;2023-01-28T16:31:22;2.90;99.90